Hollister, Florida
Current Conditions -  °F | °C
As of 9:55 PM on Tuesday 25 Nov 2014 (Local Time) from K28J Reporting Station
Light Rain Light Rain  
Wind Chill: 68°   Ceiling: 400
Heat Index: 68°   Visibility: 8mi
Dew Point: 68°   Wind: 9mph
Humidity: 100%   Direction: 120°ESE
Pressure: 29.88"   Gusts: NA
Location:  29.62°N, 81.81°W
Report Text: K28J 260255Z AUTO 12008KT 8SM -RA OVC004 20/20 A2988 RMK AO2 LTG DSNT SE P0011
Loading
Personal Weather Stations






























Interactive Weather Map New forecast layout! Learn more

10-Day Weather Forecast

Advertisements
Track Severe Weather on mobile